Time;durP1;ratioP1;P1;durP2;ratioP2;P2;SDS_P1;SDS_P2;PMS_P1;PMS_P2;Temp;Humidity;BMP_temperature;BMP_pressure;BME280_temperature;BME280_humidity;BME280_pressure;Samples;Min_cycle;Max_cycle;Signal;HPM_P1;HPM_P2
2021/12/07 00:02:05;;;;;;;7.68;6.93;;;1.90;81.40;;;;;;5114062;27;20204;-58
2021/12/07 00:04:31;;;;;;;7.90;7.20;;;1.90;81.10;;;;;;5115397;28;20265;-58
2021/12/07 00:06:59;;;;;;;9.05;7.50;;;1.90;80.80;;;;;;5115326;28;20210;-59
2021/12/07 00:09:26;;;;;;;7.25;6.63;;;1.90;80.60;;;;;;5115153;28;20203;-58
2021/12/07 00:11:53;;;;;;;8.98;8.10;;;1.90;80.60;;;;;;5114954;28;20401;-58
2021/12/07 00:14:24;;;;;;;8.98;7.97;;;1.90;80.90;;;;;;5114777;28;20609;-59
2021/12/07 00:16:53;;;;;;;8.40;7.47;;;2.00;80.60;;;;;;5113635;28;20276;-58
2021/12/07 00:19:20;;;;;;;7.68;6.97;;;2.00;80.50;;;;;;5115009;28;20203;-57
2021/12/07 00:21:48;;;;;;;8.20;7.45;;;2.10;80.40;;;;;;5115060;28;20294;-59
2021/12/07 00:24:16;;;;;;;7.90;7.20;;;2.10;80.20;;;;;;5114817;28;20565;-58
2021/12/07 00:26:44;;;;;;;8.25;7.45;;;2.10;80.00;;;;;;5114965;28;20595;-57
2021/12/07 00:29:12;;;;;;;7.53;6.93;;;2.00;80.20;;;;;;5114887;28;20200;-57
2021/12/07 00:31:49;;;;;;;7.57;6.80;;;2.00;80.40;;;;;;5113586;28;20282;-58
2021/12/07 00:34:25;;;;;;;7.03;6.38;;;2.00;80.80;;;;;;5114961;28;20605;-59
2021/12/07 00:36:52;;;;;;;6.70;6.10;;;1.90;80.50;;;;;;5114662;28;20653;-59
2021/12/07 00:39:22;;;;;;;7.22;6.63;;;1.80;81.20;;;;;;5114788;28;20203;-61
2021/12/07 00:41:50;;;;;;;6.88;6.18;;;1.70;81.80;;;;;;5114662;28;20209;-61
2021/12/07 00:44:19;;;;;;;6.80;6.20;;;1.60;82.60;;;;;;5114486;28;20230;-61
2021/12/07 00:46:48;;;;;;;7.20;6.43;;;1.50;83.60;;;;;;5113287;28;20294;-60
2021/12/07 00:49:16;;;;;;;7.88;6.32;;;1.40;84.40;;;;;;5114366;28;20210;-61
2021/12/07 00:51:43;;;;;;;7.30;6.43;;;1.30;85.20;;;;;;5114453;28;20203;-61
2021/12/07 00:54:11;;;;;;;6.80;6.15;;;1.30;86.00;;;;;;5114533;28;20211;-59
2021/12/07 00:56:38;;;;;;;8.48;6.68;;;1.20;86.70;;;;;;5114395;28;20230;-61
2021/12/07 00:59:05;;;;;;;8.30;7.18;;;1.20;87.10;;;;;;5114483;28;20199;-59
2021/12/07 01:01:32;;;;;;;6.45;5.85;;;1.10;87.90;;;;;;5112928;28;20208;-61
2021/12/07 01:04:01;;;;;;;7.25;5.50;;;1.10;88.80;;;;;;5114155;27;20879;-59
2021/12/07 01:06:31;;;;;;;9.18;5.95;;;1.10;89.40;;;;;;5114297;28;20298;-61
2021/12/07 01:09:10;;;;;;;8.05;6.18;;;1.10;90.00;;;;;;5114143;28;20246;-60
2021/12/07 01:25:30;;;;;;;8.00;5.80;;;1.00;92.00;;;;;;5113711;28;20605;-61
2021/12/07 01:28:03;;;;;;;9.80;5.93;;;0.90;92.20;;;;;;5113560;28;20207;-61
2021/12/07 01:30:38;;;;;;;7.53;5.50;;;0.90;92.60;;;;;;5113957;28;20256;-60
2021/12/07 01:33:23;;;;;;;6.95;5.55;;;0.90;92.80;;;;;;5112349;28;20203;-62
2021/12/07 01:36:04;;;;;;;6.50;5.80;;;0.80;93.10;;;;;;5113749;28;20606;-61
2021/12/07 01:39:29;;;;;;;8.82;6.35;;;0.90;93.20;;;;;;5113606;28;20231;-61
2021/12/07 01:41:41;;;;;;;7.75;5.40;;;0.90;93.40;;;;;;5113386;28;20211;-61
2021/12/07 01:44:24;;;;;;;8.77;5.60;;;0.90;93.40;;;;;;5113441;28;20317;-61
2021/12/07 01:47:21;;;;;;;11.52;6.43;;;0.90;93.30;;;;;;5112263;28;20274;-59
2021/12/07 01:50:15;;;;;;;7.32;5.30;;;0.90;93.40;;;;;;5113481;28;20203;-60
2021/12/07 01:53:01;;;;;;;8.85;6.05;;;0.90;93.50;;;;;;5113504;28;20237;-61
2021/12/07 02:01:00;;;;;;;7.85;5.70;;;0.90;94.20;;;;;;5113549;28;20668;-60
2021/12/07 02:03:28;;;;;;;9.13;5.70;;;0.90;94.10;;;;;;5112157;28;20202;-61
2021/12/07 02:05:55;;;;;;;8.50;5.10;;;0.90;94.40;;;;;;5113320;28;20203;-62
2021/12/07 02:08:23;;;;;;;9.02;5.20;;;0.90;94.80;;;;;;5113293;28;20215;-61
2021/12/07 02:10:53;;;;;;;7.03;5.53;;;0.90;94.80;;;;;;5113378;28;20310;-62
2021/12/07 02:14:04;;;;;;;9.25;6.00;;;0.90;95.00;;;;;;5113304;28;20550;-61
2021/12/07 02:16:12;;;;;;;8.20;5.35;;;0.90;95.30;;;;;;5112225;28;20657;-61
2021/12/07 02:18:39;;;;;;;8.13;5.05;;;1.00;95.30;;;;;;5113148;28;20234;-61
2021/12/07 02:21:22;;;;;;;8.57;6.18;;;0.90;95.30;;;;;;5113017;28;20286;-61
2021/12/07 02:23:49;;;;;;;6.93;4.80;;;0.90;95.40;;;;;;5113260;28;20290;-63
2021/12/07 02:26:16;;;;;;;9.07;5.57;;;1.00;95.70;;;;;;5113201;28;20203;-61
2021/12/07 02:28:44;;;;;;;7.53;4.50;;;1.00;95.60;;;;;;5113310;28;20209;-61
2021/12/07 02:31:12;;;;;;;6.85;4.78;;;1.10;95.10;;;;;;5112342;28;20294;-62
2021/12/07 02:33:40;;;;;;;7.13;4.63;;;1.10;95.00;;;;;;5113089;28;20295;-62
2021/12/07 02:36:08;;;;;;;5.05;4.00;;;1.20;94.90;;;;;;5113031;28;20677;-60
2021/12/07 02:38:36;;;;;;;7.68;4.80;;;1.10;94.90;;;;;;5115999;28;20657;-67
2021/12/07 02:41:04;;;;;;;6.35;4.22;;;1.20;95.10;;;;;;5117173;28;20205;-60
2021/12/07 02:43:31;;;;;;;5.40;4.15;;;1.20;94.90;;;;;;5117142;28;20322;-60
2021/12/07 02:45:58;;;;;;;6.60;4.20;;;1.30;94.90;;;;;;5116878;27;20210;-64
2021/12/07 02:48:25;;;;;;;5.30;4.00;;;1.30;94.80;;;;;;5115750;27;20207;-61
2021/12/07 02:50:52;;;;;;;5.28;4.13;;;1.30;95.00;;;;;;5116840;28;20282;-61
2021/12/07 02:53:22;;;;;;;8.02;4.20;;;1.20;95.20;;;;;;5116957;27;20207;-64
2021/12/07 02:55:51;;;;;;;4.95;3.95;;;1.20;95.40;;;;;;5116861;28;20203;-62
2021/12/07 02:58:19;;;;;;;5.43;3.97;;;1.20;95.40;;;;;;5116682;28;20238;-61
2021/12/07 03:00:52;;;;;;;5.13;4.63;;;1.20;95.50;;;;;;5116591;28;20203;-59
2021/12/07 03:03:19;;;;;;;5.97;4.13;;;1.30;95.70;;;;;;5115475;28;20199;-64
2021/12/07 03:05:54;;;;;;;4.10;3.35;;;1.30;95.60;;;;;;5116777;28;20234;-61
2021/12/07 03:27:50;;;;;;;2.45;2.20;;;1.40;96.30;;;;;;5116157;28;20283;-59
2021/12/07 03:30:18;;;;;;;3.35;2.33;;;1.50;96.30;;;;;;5116176;28;20202;-59
2021/12/07 03:32:44;;;;;;;2.75;2.55;;;1.60;96.30;;;;;;5114716;28;20204;-60
2021/12/07 03:35:12;;;;;;;2.75;2.55;;;1.70;96.10;;;;;;5116026;28;20234;-60
2021/12/07 03:37:39;;;;;;;2.72;2.53;;;1.70;95.80;;;;;;5115858;28;20562;-59
2021/12/07 03:40:07;;;;;;;2.60;2.40;;;1.70;95.70;;;;;;5116044;28;20206;-59
2021/12/07 03:42:34;;;;;;;2.40;2.10;;;1.80;95.50;;;;;;5115654;28;20229;-60
2021/12/07 03:45:04;;;;;;;2.55;2.08;;;1.90;95.00;;;;;;5115804;28;20203;-59
2021/12/07 03:47:31;;;;;;;2.47;2.20;;;1.90;95.00;;;;;;5114526;27;20211;-60
2021/12/07 03:49:58;;;;;;;2.88;2.38;;;1.80;95.00;;;;;;5115088;28;20637;-60
2021/12/07 03:52:25;;;;;;;3.17;2.22;;;1.80;95.10;;;;;;5115737;28;20778;-62
2021/12/07 03:54:51;;;;;;;2.78;2.58;;;1.70;95.30;;;;;;5115577;28;20199;-59
2021/12/07 03:57:18;;;;;;;2.47;2.28;;;1.70;95.50;;;;;;5115532;28;20223;-59
2021/12/07 03:59:45;;;;;;;3.50;2.70;;;1.80;95.50;;;;;;5115634;28;20299;-59
2021/12/07 04:02:14;;;;;;;2.50;2.30;;;1.80;95.30;;;;;;5114259;28;20199;-60
2021/12/07 04:04:41;;;;;;;3.78;2.50;;;1.80;95.30;;;;;;5115589;28;20222;-60
2021/12/07 04:07:07;;;;;;;3.55;2.42;;;1.80;95.50;;;;;;5115466;28;20238;-60
2021/12/07 04:09:34;;;;;;;3.08;2.50;;;1.80;95.50;;;;;;5115268;28;20306;-60
2021/12/07 04:12:01;;;;;;;3.20;2.30;;;1.80;95.70;;;;;;5115288;28;20242;-60
2021/12/07 04:14:28;;;;;;;3.17;2.20;;;1.90;95.70;;;;;;5115349;28;20622;-61
2021/12/07 04:16:55;;;;;;;1.83;1.73;;;1.90;95.60;;;;;;5113893;28;20199;-64
2021/12/07 04:19:23;;;;;;;5.25;2.70;;;1.90;95.50;;;;;;5115194;28;20230;-62
2021/12/07 04:21:50;;;;;;;9.57;2.40;;;1.90;95.30;;;;;;5115118;28;20208;-60
2021/12/07 04:24:17;;;;;;;2.33;2.13;;;1.90;95.20;;;;;;5115159;28;20290;-60
2021/12/07 04:26:44;;;;;;;2.45;2.25;;;1.90;95.20;;;;;;5115053;28;20667;-61
2021/12/07 04:29:11;;;;;;;4.82;2.78;;;1.90;95.20;;;;;;5115098;28;20306;-62
2021/12/07 04:31:38;;;;;;;3.10;2.80;;;1.90;95.30;;;;;;5113692;28;20199;-61
2021/12/07 04:34:05;;;;;;;3.00;2.50;;;1.90;95.20;;;;;;5115045;28;20204;-60
2021/12/07 04:36:33;;;;;;;3.60;2.45;;;1.90;95.00;;;;;;5114804;28;20204;-60
2021/12/07 04:39:00;;;;;;;5.68;2.90;;;1.90;94.70;;;;;;5114842;28;20326;-59
2021/12/07 04:41:32;;;;;;;2.40;2.20;;;1.90;94.70;;;;;;5114808;28;20203;-59
2021/12/07 04:43:59;;;;;;;4.05;2.33;;;2.00;94.80;;;;;;5114554;28;20259;-59
2021/12/07 04:46:34;;;;;;;2.55;2.33;;;2.00;94.50;;;;;;5113358;28;20254;-59
2021/12/07 05:00:05;;;;;;;3.05;2.60;;;2.20;93.40;;;;;;5114252;28;20215;-59
2021/12/07 05:02:34;;;;;;;3.30;2.55;;;2.20;93.30;;;;;;5112243;28;20290;-61
2021/12/07 05:05:00;;;;;;;3.28;2.65;;;2.20;92.90;;;;;;5114203;28;20207;-58
2021/12/07 05:07:34;;;;;;;3.15;2.47;;;2.30;93.00;;;;;;5114190;28;20235;-58
2021/12/07 05:10:14;;;;;;;3.25;2.95;;;2.50;93.40;;;;;;5113976;28;20292;-58
2021/12/07 05:12:56;;;;;;;2.53;2.33;;;2.70;92.80;;;;;;5114048;28;20199;-57
2021/12/07 05:15:29;;;;;;;4.85;3.03;;;2.70;91.40;;;;;;5114019;28;20204;-57
2021/12/07 05:18:09;;;;;;;2.65;2.42;;;2.60;91.20;;;;;;5112495;28;20617;-57
2021/12/07 05:34:33;;;;;;;3.25;2.47;;;2.70;91.20;;;;;;5113875;28;20579;-57
2021/12/07 05:40:03;;;;;;;3.45;2.83;;;2.50;91.40;;;;;;5113766;28;20279;-59
2021/12/07 05:42:30;;;;;;;2.97;2.67;;;2.40;91.60;;;;;;5113501;28;20274;-60
2021/12/07 05:44:58;;;;;;;3.72;2.80;;;2.40;91.40;;;;;;5113636;28;20203;-59
2021/12/07 05:47:25;;;;;;;2.33;2.22;;;2.40;91.70;;;;;;5112215;28;20294;-61
2021/12/07 05:49:52;;;;;;;4.25;2.85;;;2.40;91.70;;;;;;5113514;28;20298;-59
2021/12/07 05:52:19;;;;;;;3.58;2.63;;;2.40;91.90;;;;;;5113519;28;20203;-59
2021/12/07 05:54:46;;;;;;;2.78;2.53;;;2.30;92.10;;;;;;5113523;28;20195;-59
2021/12/07 05:57:15;;;;;;;6.32;3.40;;;2.20;92.50;;;;;;5113527;28;20282;-60
2021/12/07 05:59:42;;;;;;;10.05;3.33;;;2.20;92.90;;;;;;5113453;28;20231;-62
2021/12/07 06:02:09;;;;;;;4.78;2.70;;;2.10;93.60;;;;;;5111990;28;20221;-64
2021/12/07 06:04:36;;;;;;;3.80;3.30;;;2.00;93.60;;;;;;5113506;28;20243;-62
2021/12/07 06:07:04;;;;;;;3.60;2.70;;;2.00;93.80;;;;;;5113329;28;20212;-62
2021/12/07 06:09:31;;;;;;;4.80;3.03;;;2.00;93.50;;;;;;5113360;28;20272;-62
2021/12/07 06:11:58;;;;;;;3.00;2.70;;;2.00;93.30;;;;;;5113690;28;20206;-61
2021/12/07 06:14:32;;;;;;;6.80;2.90;;;2.00;92.50;;;;;;5117676;28;20210;-62
2021/12/07 06:16:59;;;;;;;4.53;2.22;;;2.00;91.80;;;;;;5116382;28;20204;-61
2021/12/07 06:19:26;;;;;;;3.45;2.75;;;2.10;90.80;;;;;;5117486;28;20258;-61
2021/12/07 06:21:53;;;;;;;4.15;2.70;;;2.20;90.90;;;;;;5117511;28;20210;-60
2021/12/07 06:24:20;;;;;;;6.10;2.80;;;2.30;90.00;;;;;;5117413;28;20203;-58
2021/12/07 06:26:47;;;;;;;4.63;3.05;;;2.40;89.10;;;;;;5117337;28;20221;-58
2021/12/07 06:29:14;;;;;;;7.35;3.10;;;2.50;88.80;;;;;;5117181;28;20564;-58
2021/12/07 06:31:42;;;;;;;3.03;2.83;;;2.60;88.60;;;;;;5116003;28;20659;-58
2021/12/07 06:34:10;;;;;;;6.28;3.05;;;2.70;88.40;;;;;;5117363;28;20199;-59
2021/12/07 06:36:37;;;;;;;2.80;2.70;;;2.70;88.00;;;;;;5117083;28;20203;-59
2021/12/07 06:39:05;;;;;;;3.35;3.05;;;2.80;87.20;;;;;;5116971;27;20223;-58
2021/12/07 06:41:32;;;;;;;4.97;3.80;;;2.70;87.10;;;;;;5117060;28;20203;-58
2021/12/07 06:43:59;;;;;;;3.83;3.60;;;2.70;87.10;;;;;;5116756;28;20242;-60
2021/12/07 06:46:25;;;;;;;3.67;3.38;;;2.80;87.30;;;;;;5115685;28;20238;-57
2021/12/07 06:48:54;;;;;;;3.58;3.25;;;2.80;87.20;;;;;;5116877;28;20581;-58
2021/12/07 06:51:21;;;;;;;3.45;3.15;;;2.80;87.00;;;;;;5116903;28;20223;-58
2021/12/07 06:53:48;;;;;;;4.13;3.58;;;2.90;87.20;;;;;;5116904;28;20204;-58
2021/12/07 06:56:15;;;;;;;3.33;3.13;;;3.00;86.50;;;;;;5116709;28;20298;-56
2021/12/07 06:58:42;;;;;;;3.83;3.00;;;3.10;86.50;;;;;;5116463;28;20229;-57
2021/12/07 07:01:11;;;;;;;6.07;3.63;;;3.10;86.20;;;;;;5116055;28;20290;-58
2021/12/07 07:03:38;;;;;;;6.40;3.33;;;3.20;86.40;;;;;;5116568;28;20733;-56
2021/12/07 07:06:07;;;;;;;6.00;3.92;;;3.50;86.20;;;;;;5116478;28;20206;-55
2021/12/07 07:08:36;;;;;;;3.72;3.50;;;3.60;85.40;;;;;;5116378;28;20234;-57
2021/12/07 07:11:04;;;;;;;6.85;4.10;;;3.60;84.50;;;;;;5116190;28;20239;-58
2021/12/07 07:13:31;;;;;;;6.00;3.45;;;3.50;84.20;;;;;;5116404;28;20196;-56
2021/12/07 07:15:58;;;;;;;6.97;3.75;;;3.40;84.60;;;;;;5116390;28;20656;-56
2021/12/07 07:18:25;;;;;;;4.03;3.70;;;3.50;85.60;;;;;;5114733;28;20235;-56
2021/12/07 07:20:52;;;;;;;4.10;3.80;;;3.70;86.40;;;;;;5116237;28;20204;-56
2021/12/07 07:23:20;;;;;;;6.95;3.42;;;3.80;84.50;;;;;;5115795;28;20199;-58
2021/12/07 07:25:47;;;;;;;3.85;3.60;;;3.90;84.70;;;;;;5115287;28;20291;-56
2021/12/07 07:28:14;;;;;;;3.95;3.65;;;3.90;83.20;;;;;;5115946;28;20207;-59
2021/12/07 07:30:41;;;;;;;5.38;3.58;;;3.80;83.20;;;;;;5115918;28;20203;-56
2021/12/07 07:33:07;;;;;;;7.45;4.13;;;3.70;83.60;;;;;;5114678;28;20310;-56
2021/12/07 07:35:34;;;;;;;3.83;3.53;;;3.60;83.80;;;;;;5115876;28;20199;-55
2021/12/07 07:38:02;;;;;;;6.50;3.90;;;3.50;84.00;;;;;;5115657;28;20210;-56
2021/12/07 07:40:30;;;;;;;8.02;3.40;;;3.50;84.50;;;;;;5115819;28;20692;-58
2021/12/07 07:42:57;;;;;;;5.68;4.28;;;3.50;83.90;;;;;;5115586;28;20234;-56
2021/12/07 07:45:24;;;;;;;4.65;4.28;;;3.40;84.20;;;;;;5115761;28;20205;-56
2021/12/07 07:47:51;;;;;;;3.55;3.25;;;3.40;84.00;;;;;;5114441;28;20203;-60
2021/12/07 07:50:18;;;;;;;4.40;4.10;;;3.30;83.80;;;;;;5115665;28;20250;-60
2021/12/07 07:52:45;;;;;;;4.10;3.90;;;3.20;84.40;;;;;;5115630;28;20203;-58
2021/12/07 07:55:13;;;;;;;4.25;3.95;;;3.30;84.70;;;;;;5115651;28;20230;-58
2021/12/07 07:57:41;;;;;;;6.25;4.47;;;3.20;84.40;;;;;;5115561;28;20235;-59
2021/12/07 08:00:11;;;;;;;5.28;4.15;;;3.10;84.70;;;;;;5115384;27;20231;-61
2021/12/07 08:02:38;;;;;;;5.85;4.32;;;3.10;84.50;;;;;;5114274;28;20199;-59
2021/12/07 08:05:06;;;;;;;4.65;4.35;;;3.00;85.00;;;;;;5115372;28;20229;-57
2021/12/07 08:07:32;;;;;;;4.50;4.10;;;3.20;85.00;;;;;;5115235;28;20662;-57
2021/12/07 08:09:59;;;;;;;5.35;4.10;;;3.20;84.80;;;;;;5115296;28;20234;-56
2021/12/07 08:12:26;;;;;;;4.60;4.20;;;3.30;84.90;;;;;;5115261;28;20202;-58
2021/12/07 08:14:55;;;;;;;5.22;4.40;;;3.30;84.80;;;;;;5115117;28;20295;-58
2021/12/07 08:17:21;;;;;;;3.95;3.70;;;3.30;84.90;;;;;;5113811;28;20210;-57
2021/12/07 08:19:49;;;;;;;4.25;3.95;;;3.40;85.00;;;;;;5114870;28;20237;-58
2021/12/07 08:22:16;;;;;;;7.53;3.78;;;3.40;83.80;;;;;;5114967;28;20206;-59
2021/12/07 08:24:44;;;;;;;4.50;4.20;;;3.30;84.30;;;;;;5114911;28;20214;-61
2021/12/07 08:27:11;;;;;;;4.40;4.10;;;3.10;84.70;;;;;;5115088;28;20203;-60
2021/12/07 08:29:37;;;;;;;4.25;3.70;;;3.10;85.10;;;;;;5114915;28;20203;-61
2021/12/07 08:32:07;;;;;;;3.88;3.45;;;3.20;84.90;;;;;;5113547;28;20209;-59
2021/12/07 08:34:34;;;;;;;4.82;4.38;;;3.20;84.80;;;;;;5114666;28;20290;-58
2021/12/07 08:37:01;;;;;;;5.40;4.95;;;3.20;85.00;;;;;;5114469;27;20289;-59
2021/12/07 08:39:27;;;;;;;7.15;5.25;;;3.30;84.40;;;;;;5114635;28;20321;-58
2021/12/07 08:41:54;;;;;;;5.60;4.50;;;3.30;84.10;;;;;;5114600;28;20235;-59
2021/12/07 08:44:21;;;;;;;4.97;4.53;;;3.30;84.20;;;;;;5114414;28;20241;-58
2021/12/07 08:46:48;;;;;;;6.38;4.65;;;3.40;84.40;;;;;;5113137;28;20199;-60
2021/12/07 08:49:18;;;;;;;4.40;3.58;;;3.50;83.60;;;;;;5114440;28;20210;-59
2021/12/07 08:51:45;;;;;;;4.90;4.50;;;3.40;83.20;;;;;;5114472;28;20249;-59
2021/12/07 08:54:27;;;;;;;4.60;4.20;;;3.40;84.10;;;;;;5114377;28;20290;-58
2021/12/07 08:59:44;;;;;;;4.15;3.80;;;3.60;83.60;;;;;;5114200;28;20230;-59
2021/12/07 09:02:14;;;;;;;5.35;4.95;;;3.60;81.80;;;;;;5112906;28;20217;-58
2021/12/07 09:04:42;;;;;;;6.25;4.70;;;3.70;82.80;;;;;;5114165;28;20207;-59
2021/12/07 09:07:09;;;;;;;6.03;5.57;;;3.90;82.10;;;;;;5114041;28;20688;-58
2021/12/07 09:09:37;;;;;;;5.32;4.60;;;4.00;81.20;;;;;;5114021;28;20195;-58
2021/12/07 09:12:04;;;;;;;5.75;5.35;;;4.00;80.60;;;;;;5113938;28;20211;-58
2021/12/07 09:14:32;;;;;;;5.90;5.50;;;4.00;81.20;;;;;;5113945;28;20300;-59
2021/12/07 09:16:59;;;;;;;4.82;4.50;;;4.10;81.00;;;;;;5112661;28;20213;-57
2021/12/07 09:19:27;;;;;;;5.53;5.03;;;4.20;80.60;;;;;;5113890;28;20590;-57
2021/12/07 09:21:55;;;;;;;5.20;4.80;;;4.30;80.80;;;;;;5113735;28;20631;-58
2021/12/07 09:24:23;;;;;;;6.13;4.90;;;4.40;80.50;;;;;;5113550;28;20203;-57
2021/12/07 09:26:51;;;;;;;6.65;5.32;;;4.50;80.40;;;;;;5113651;28;20291;-57
2021/12/07 09:29:18;;;;;;;6.32;5.05;;;4.60;79.50;;;;;;5113698;28;20211;-58
2021/12/07 09:31:45;;;;;;;5.85;5.25;;;4.40;78.80;;;;;;5112300;28;20204;-57
2021/12/07 09:34:12;;;;;;;6.28;5.70;;;4.30;79.70;;;;;;5113609;28;20209;-57
2021/12/07 09:36:40;;;;;;;6.45;5.95;;;4.20;79.00;;;;;;5113605;28;20204;-58
2021/12/07 09:39:11;;;;;;;5.55;5.03;;;4.20;80.00;;;;;;5113355;28;20654;-57
2021/12/07 09:41:39;;;;;;;7.05;5.95;;;4.20;79.00;;;;;;5113492;28;20199;-57
2021/12/07 09:44:07;;;;;;;6.43;5.82;;;4.20;78.90;;;;;;5113265;28;20273;-58
2021/12/07 09:46:34;;;;;;;5.40;4.90;;;4.30;79.00;;;;;;5111761;28;20475;-58
2021/12/07 09:49:02;;;;;;;6.00;5.40;;;4.30;78.80;;;;;;5113190;28;20218;-57
2021/12/07 09:51:29;;;;;;;6.10;5.70;;;4.40;78.80;;;;;;5113217;28;20285;-58
2021/12/07 09:54:00;;;;;;;6.15;5.65;;;4.50;78.80;;;;;;5113307;28;20347;-57
2021/12/07 09:56:29;;;;;;;5.72;5.30;;;4.60;77.80;;;;;;5113314;28;20199;-57
2021/12/07 09:58:59;;;;;;;6.10;5.70;;;4.70;78.10;;;;;;5113271;28;20203;-57
2021/12/07 10:01:27;;;;;;;6.82;6.18;;;4.70;76.60;;;;;;5112021;28;20202;-58
2021/12/07 10:03:54;;;;;;;6.50;5.75;;;4.60;75.20;;;;;;5113143;28;20207;-57
2021/12/07 10:06:22;;;;;;;7.70;6.10;;;4.40;76.40;;;;;;5113017;28;20194;-60
2021/12/07 10:08:49;;;;;;;6.05;5.65;;;4.50;76.90;;;;;;5113137;28;20668;-58
2021/12/07 10:11:17;;;;;;;6.95;6.55;;;4.60;76.10;;;;;;5113352;28;20195;-56
2021/12/07 10:13:47;;;;;;;6.78;6.30;;;4.70;75.90;;;;;;5113174;28;20210;-56
2021/12/07 10:16:16;;;;;;;5.85;5.60;;;4.90;76.10;;;;;;5112060;28;20286;-59
2021/12/07 10:18:44;;;;;;;6.90;6.35;;;4.90;75.30;;;;;;5113043;28;20199;-57
2021/12/07 10:21:17;;;;;;;5.65;5.45;;;4.80;75.50;;;;;;5113197;28;20199;-58
2021/12/07 10:23:45;;;;;;;6.35;5.80;;;4.60;75.40;;;;;;5113054;28;20203;-60
2021/12/07 10:26:16;;;;;;;7.15;6.60;;;4.50;76.40;;;;;;5113054;28;20650;-58
2021/12/07 10:28:49;;;;;;;7.60;6.28;;;4.50;76.00;;;;;;5113115;28;20195;-58
2021/12/07 10:31:27;;;;;;;6.22;5.85;;;4.60;75.20;;;;;;5111575;28;20290;-58
2021/12/07 10:33:58;;;;;;;6.47;6.00;;;4.70;75.00;;;;;;5113085;28;20658;-58
2021/12/07 10:36:27;;;;;;;6.50;5.95;;;4.90;75.50;;;;;;5112998;28;20203;-58
2021/12/07 10:39:01;;;;;;;5.30;4.40;;;5.10;75.30;;;;;;5112824;28;20214;-58
2021/12/07 10:41:32;;;;;;;5.88;5.57;;;5.20;73.20;;;;;;5113187;28;20561;-59
2021/12/07 10:44:04;;;;;;;6.95;6.55;;;5.10;73.10;;;;;;5112736;28;20264;-58
2021/12/07 10:46:59;;;;;;;6.70;6.13;;;4.80;72.80;;;;;;5111579;28;20441;-57
2021/12/07 10:49:39;;;;;;;7.05;6.40;;;4.80;74.30;;;;;;5112745;28;20668;-57
2021/12/07 10:52:26;;;;;;;7.28;6.78;;;5.00;73.40;;;;;;5112677;28;20281;-56
2021/12/07 10:55:00;;;;;;;7.55;7.15;;;5.20;72.50;;;;;;5112712;28;20199;-56
2021/12/07 10:57:30;;;;;;;5.65;5.30;;;5.30;70.00;;;;;;5112810;28;20353;-58
2021/12/07 11:00:04;;;;;;;6.55;6.05;;;5.20;71.30;;;;;;5115992;28;20596;-58
2021/12/07 11:02:34;;;;;;;6.10;5.80;;;5.40;70.60;;;;;;5114881;28;20732;-58
2021/12/07 11:05:02;;;;;;;7.05;6.55;;;6.40;69.10;;;;;;5116452;28;20220;-57
2021/12/07 11:07:30;;;;;;;6.90;6.60;;;7.30;63.60;;;;;;5116223;28;20638;-57
2021/12/07 11:10:05;;;;;;;5.25;4.95;;;7.60;64.60;;;;;;5116216;28;20302;-57
2021/12/07 11:12:40;;;;;;;7.05;6.45;;;8.50;63.40;;;;;;5116291;28;20234;-58
2021/12/07 11:15:15;;;;;;;7.47;6.97;;;9.80;58.40;;;;;;5116144;28;20198;-58
2021/12/07 11:17:43;;;;;;;6.50;6.10;;;10.20;57.80;;;;;;5114966;27;20255;-57
2021/12/07 11:20:12;;;;;;;5.80;5.40;;;11.30;61.10;;;;;;5116250;28;20632;-59
2021/12/07 11:22:43;;;;;;;8.02;6.63;;;12.70;54.30;;;;;;5116253;28;20733;-60
2021/12/07 11:25:10;;;;;;;7.63;7.00;;;13.30;48.20;;;;;;5116136;28;20689;-57
2021/12/07 11:30:46;;;;;;;8.07;7.32;;;13.10;47.40;;;;;;5073234;28;20279;-62
2021/12/07 11:33:24;;;;;;;6.72;6.10;;;12.00;47.50;;;;;;5071840;28;20299;-59
2021/12/07 11:35:51;;;;;;;6.97;6.57;;;11.70;50.90;;;;;;5094997;28;20672;-57
2021/12/07 11:38:29;;;;;;;6.97;6.47;;;11.70;47.70;;;;;;5115934;28;20239;-57
2021/12/07 11:41:15;;;;;;;8.05;7.63;;;11.70;50.10;;;;;;5115790;28;20231;-58
2021/12/07 11:43:55;;;;;;;7.90;7.50;;;11.70;48.10;;;;;;5115696;28;20227;-58
2021/12/07 11:46:25;;;;;;;7.82;7.50;;;10.50;50.50;;;;;;5114147;28;20203;-58
2021/12/07 11:49:12;;;;;;;7.00;6.57;;;9.20;54.10;;;;;;5116054;28;20206;-58
2021/12/07 11:51:41;;;;;;;7.35;6.78;;;7.70;58.70;;;;;;5115802;28;20282;-57
2021/12/07 11:54:08;;;;;;;7.85;7.28;;;6.90;62.50;;;;;;5115619;28;20285;-59
2021/12/07 11:56:36;;;;;;;6.60;6.20;;;6.30;63.80;;;;;;5115544;28;20196;-58
2021/12/07 11:59:04;;;;;;;5.78;5.28;;;5.90;64.80;;;;;;5115409;28;20199;-58
2021/12/07 12:01:35;;;;;;;7.43;6.95;;;5.70;65.50;;;;;;5114062;28;20235;-57
2021/12/07 12:04:02;;;;;;;7.20;6.80;;;5.70;66.30;;;;;;5115554;28;20210;-57
2021/12/07 12:06:30;;;;;;;7.53;6.97;;;5.60;69.30;;;;;;5115316;28;20220;-58
2021/12/07 12:08:58;;;;;;;4.25;3.85;;;5.50;70.20;;;;;;5115301;28;20199;-59
2021/12/07 12:11:35;;;;;;;6.30;5.90;;;5.40;71.70;;;;;;5114679;28;20207;-57
2021/12/07 12:14:14;;;;;;;5.93;5.35;;;6.20;70.90;;;;;;5115249;28;20203;-57
2021/12/07 12:16:57;;;;;;;7.45;6.85;;;7.90;65.30;;;;;;5113833;28;20231;-57
2021/12/07 12:19:32;;;;;;;5.80;5.30;;;8.90;62.90;;;;;;5115132;28;20203;-59
2021/12/07 12:22:06;;;;;;;6.82;6.43;;;9.30;58.70;;;;;;5115082;28;20199;-58
2021/12/07 12:24:44;;;;;;;6.85;6.32;;;9.40;58.70;;;;;;5115007;28;20239;-57
2021/12/07 12:27:15;;;;;;;6.88;6.47;;;9.20;57.80;;;;;;5114930;28;20207;-57
2021/12/07 12:29:45;;;;;;;4.63;4.22;;;8.70;59.10;;;;;;5114882;28;20650;-57
2021/12/07 12:32:13;;;;;;;7.35;6.80;;;8.20;61.00;;;;;;5113453;28;20231;-59
2021/12/07 12:34:49;;;;;;;5.70;5.40;;;7.30;62.90;;;;;;5114873;28;20644;-59
2021/12/07 12:37:18;;;;;;;8.30;7.65;;;6.70;65.30;;;;;;5114806;28;20213;-56
2021/12/07 12:39:53;;;;;;;6.68;6.30;;;6.70;66.70;;;;;;5114583;28;20207;-57
2021/12/07 12:42:35;;;;;;;7.10;6.57;;;7.40;66.00;;;;;;5114582;28;20329;-59
2021/12/07 12:45:10;;;;;;;7.45;7.05;;;8.10;64.20;;;;;;5114541;28;20226;-58
2021/12/07 12:47:40;;;;;;;7.63;7.13;;;8.60;62.00;;;;;;5113321;28;20609;-58
2021/12/07 12:50:19;;;;;;;7.75;7.15;;;8.80;62.70;;;;;;5114577;27;20659;-58
2021/12/07 12:52:49;;;;;;;5.10;4.70;;;8.90;61.50;;;;;;5114379;28;20199;-57
2021/12/07 12:55:39;;;;;;;6.50;6.03;;;8.70;58.30;;;;;;5114338;27;20218;-59
2021/12/07 12:58:09;;;;;;;6.25;5.75;;;7.90;59.40;;;;;;5110671;28;20205;-59
2021/12/07 13:01:09;;;;;;;5.50;5.00;;;7.00;61.30;;;;;;5114218;28;20309;-57
2021/12/07 13:04:06;;;;;;;7.68;7.18;;;6.40;63.30;;;;;;5113238;28;20256;-57
2021/12/07 13:06:48;;;;;;;7.38;6.97;;;6.00;64.30;;;;;;5078696;28;20562;-57
2021/12/07 13:09:31;;;;;;;6.38;6.00;;;5.70;64.90;;;;;;5114172;28;20204;-59
2021/12/07 13:12:00;;;;;;;7.15;6.65;;;5.80;66.10;;;;;;5113812;28;20569;-58
2021/12/07 13:14:50;;;;;;;4.82;4.40;;;5.60;66.50;;;;;;5114112;28;20215;-58
2021/12/07 13:17:21;;;;;;;8.48;6.38;;;5.50;66.90;;;;;;5112728;28;20588;-57
2021/12/07 13:20:24;;;;;;;6.30;5.80;;;5.40;67.60;;;;;;5113968;28;20207;-56
2021/12/07 13:23:01;;;;;;;7.20;6.80;;;5.30;68.20;;;;;;5113085;28;20207;-58
2021/12/07 13:25:32;;;;;;;6.80;6.50;;;5.30;68.80;;;;;;5113849;28;20290;-59
2021/12/07 13:28:18;;;;;;;6.28;5.28;;;5.40;69.80;;;;;;5113829;28;20686;-57
2021/12/07 13:31:13;;;;;;;7.18;6.57;;;5.40;70.20;;;;;;5113739;28;20281;-57
2021/12/07 13:33:43;;;;;;;6.35;6.05;;;5.50;70.00;;;;;;5111908;28;20214;-58
2021/12/07 13:36:49;;;;;;;6.05;5.55;;;5.70;69.00;;;;;;5113711;28;20210;-57
2021/12/07 13:39:40;;;;;;;5.93;5.53;;;5.60;69.40;;;;;;5113750;28;20256;-57
2021/12/07 13:42:12;;;;;;;7.68;6.05;;;5.50;70.70;;;;;;5113387;28;20270;-57
2021/12/07 13:44:41;;;;;;;7.13;6.50;;;5.50;71.40;;;;;;5113623;28;20203;-57
2021/12/07 13:47:11;;;;;;;7.35;6.80;;;5.50;72.20;;;;;;5112328;28;20199;-57
2021/12/07 13:49:40;;;;;;;8.10;7.00;;;5.60;72.20;;;;;;5113505;28;20214;-57
2021/12/07 13:52:16;;;;;;;7.35;6.85;;;5.60;71.10;;;;;;5113533;28;20320;-57
2021/12/07 13:54:46;;;;;;;7.20;6.75;;;5.50;71.90;;;;;;5113547;28;20246;-58
2021/12/07 13:57:16;;;;;;;5.90;5.45;;;5.30;72.50;;;;;;5113373;28;20203;-57
2021/12/07 13:59:43;;;;;;;7.35;6.78;;;5.10;73.00;;;;;;5113361;28;20199;-58
2021/12/07 14:02:10;;;;;;;7.40;6.70;;;5.10;73.30;;;;;;5097969;28;20335;-56
2021/12/07 14:04:37;;;;;;;8.18;7.45;;;5.20;73.60;;;;;;5093014;28;20559;-57
2021/12/07 14:07:04;;;;;;;7.65;7.05;;;5.30;73.20;;;;;;5094302;28;20222;-56
2021/12/07 14:09:33;;;;;;;5.70;5.30;;;5.40;73.60;;;;;;5112614;28;20252;-57
2021/12/07 14:12:01;;;;;;;6.68;6.15;;;5.30;72.30;;;;;;5112574;28;20290;-56
2021/12/07 14:14:28;;;;;;;6.03;5.53;;;5.30;71.10;;;;;;5112219;28;20658;-56
2021/12/07 14:16:58;;;;;;;7.10;6.60;;;5.30;71.70;;;;;;5111349;28;20350;-57
2021/12/07 14:19:25;;;;;;;7.38;6.20;;;5.40;72.00;;;;;;5112614;28;20234;-55
2021/12/07 14:21:52;;;;;;;6.82;6.35;;;5.60;70.60;;;;;;5112330;28;20231;-57
2021/12/07 14:24:20;;;;;;;6.90;6.50;;;5.80;70.40;;;;;;5112316;28;20301;-60
2021/12/07 14:26:50;;;;;;;5.30;4.80;;;6.00;68.40;;;;;;5112501;28;20291;-58
2021/12/07 14:29:21;;;;;;;7.88;6.20;;;5.90;66.20;;;;;;5112361;28;20213;-56